createdAt,value
2018-07-30T00:10:00.568Z,21.00
2018-07-30T00:15:04.116Z,21.00
2018-07-30T00:30:13.511Z,20.80
2018-07-30T00:35:16.767Z,20.80
2018-07-30T00:40:20.463Z,20.70
2018-07-30T00:45:23.748Z,20.80
2018-07-30T00:50:27.479Z,20.70
2018-07-30T00:55:30.736Z,20.50
2018-07-30T01:00:33.987Z,20.50
2018-07-30T01:05:37.285Z,20.60
2018-07-30T01:10:40.572Z,20.70
2018-07-30T01:15:43.852Z,20.60
2018-07-30T01:25:50.931Z,20.50
2018-07-30T01:30:54.693Z,20.30
2018-07-30T01:35:58.699Z,20.20
2018-07-30T01:41:02.016Z,20.10
2018-07-30T01:46:05.713Z,20.10
2018-07-30T01:51:08.980Z,19.90
2018-07-30T01:56:12.216Z,19.80
2018-07-30T02:01:15.498Z,19.90
2018-07-30T02:06:18.741Z,19.80
2018-07-30T02:11:22.004Z,19.70
2018-07-30T02:16:25.303Z,19.60
2018-07-30T02:21:28.645Z,19.60
2018-07-30T02:26:31.850Z,19.40
2018-07-30T02:36:38.187Z,19.40
2018-07-30T02:41:41.799Z,19.20
2018-07-30T02:46:45.052Z,19.20
2018-07-30T02:51:49.565Z,19.20
2018-07-30T02:56:52.819Z,19.20
2018-07-30T03:01:56.084Z,19.00
2018-07-30T03:06:59.352Z,19.00
2018-07-30T03:12:02.836Z,18.90
2018-07-30T03:17:06.439Z,18.90
2018-07-30T03:22:09.977Z,18.80
2018-07-30T03:27:13.427Z,18.80
2018-07-30T03:32:16.704Z,18.80
2018-07-30T03:37:19.967Z,18.80
2018-07-30T03:42:24.282Z,18.70
2018-07-30T03:47:27.472Z,18.70
2018-07-30T03:52:30.728Z,18.70
2018-07-30T03:57:33.975Z,18.80
2018-07-30T04:02:37.236Z,18.60
2018-07-30T04:07:40.503Z,18.60
2018-07-30T04:12:43.803Z,18.60
2018-07-30T04:17:47.043Z,18.60
2018-07-30T04:22:54.018Z,18.60
2018-07-30T04:27:57.286Z,18.80
2018-07-30T04:33:00.552Z,18.80
2018-07-30T04:38:03.831Z,18.90
2018-07-30T04:43:07.103Z,18.90
2018-07-30T04:48:10.495Z,18.90
2018-07-30T04:53:13.783Z,19.20
2018-07-30T04:58:17.063Z,19.40
2018-07-30T05:03:20.342Z,19.40
2018-07-30T05:13:26.686Z,19.70
2018-07-30T05:18:30.003Z,19.90
2018-07-30T05:23:33.307Z,20.20
2018-07-30T05:28:36.602Z,20.30
2018-07-30T05:33:39.877Z,20.40
2018-07-30T05:38:44.160Z,20.50
2018-07-30T05:43:47.476Z,20.50
2018-07-30T05:48:50.737Z,21.00
2018-07-30T05:53:53.986Z,21.60
2018-07-30T05:58:57.265Z,22.20
2018-07-30T06:04:00.519Z,23.00
2018-07-30T06:09:05.779Z,23.40
2018-07-30T06:14:09.018Z,23.70
2018-07-30T06:19:12.292Z,23.80
2018-07-30T06:24:15.555Z,24.60
2018-07-30T06:29:18.837Z,25.50
2018-07-30T06:34:22.108Z,26.10
2018-07-30T06:39:25.381Z,25.20
2018-07-30T06:44:28.662Z,25.80
2018-07-30T06:49:31.939Z,25.60
2018-07-30T06:54:35.204Z,26.60
2018-07-30T06:59:38.460Z,27.20
2018-07-30T07:04:42.414Z,27.90
2018-07-30T07:09:45.980Z,28.40
2018-07-30T07:14:49.337Z,27.30
2018-07-30T07:19:52.592Z,28.00
2018-07-30T07:24:56.118Z,28.00
2018-07-30T07:29:59.479Z,28.30
2018-07-30T07:35:02.851Z,28.70
2018-07-30T07:40:06.838Z,28.80
2018-07-30T07:45:10.750Z,28.70
2018-07-30T07:50:14.799Z,28.70
2018-07-30T07:55:19.181Z,29.60
2018-07-30T08:00:22.528Z,27.40
2018-07-30T08:05:26.023Z,27.00
2018-07-30T08:10:30.947Z,28.00
2018-07-30T08:15:35.021Z,29.60
2018-07-30T08:20:41.842Z,30.60
2018-07-30T08:25:47.362Z,31.10
2018-07-30T08:41:01.299Z,31.40
2018-07-30T08:46:05.372Z,32.30
2018-07-30T08:51:09.292Z,32.70
2018-07-30T08:56:13.195Z,33.20
2018-07-30T09:01:17.357Z,33.40
2018-07-30T09:06:21.152Z,32.30
2018-07-30T09:11:25.221Z,33.30
2018-07-30T09:16:28.688Z,33.60
2018-07-30T09:21:32.781Z,33.70
2018-07-30T09:26:36.275Z,33.10
2018-07-30T09:31:40.039Z,32.50
2018-07-30T09:36:43.933Z,30.70
2018-07-30T09:46:51.360Z,30.80
2018-07-30T09:51:54.984Z,31.40
2018-07-30T09:56:59.072Z,32.90
2018-07-30T10:02:03.460Z,32.90
2018-07-30T10:07:06.851Z,33.40
2018-07-30T10:12:10.659Z,33.50
2018-07-30T10:22:18.677Z,33.00
2018-07-30T10:32:25.406Z,32.00
2018-07-30T10:37:28.687Z,32.30
2018-07-30T10:42:31.955Z,32.50
2018-07-30T10:47:35.216Z,33.40
2018-07-30T10:57:42.389Z,33.30
2018-07-30T11:02:45.963Z,32.90
2018-07-30T11:07:49.633Z,33.70
2018-07-30T11:12:54.775Z,33.40
2018-07-30T11:23:05.106Z,35.80
2018-07-30T11:28:09.372Z,34.30
2018-07-30T11:33:13.111Z,35.20
2018-07-30T11:38:16.867Z,37.00
2018-07-30T11:43:20.336Z,37.50
2018-07-30T11:53:28.817Z,39.20
2018-07-30T11:58:33.967Z,39.20
2018-07-30T12:03:38.679Z,36.70
2018-07-30T12:08:43.499Z,37.00
2018-07-30T12:13:46.758Z,35.40
2018-07-30T12:39:03.427Z,35.70
2018-07-30T12:49:11.888Z,34.70
2018-07-30T12:59:19.206Z,35.60
2018-07-30T13:04:23.450Z,35.30
2018-07-30T13:14:30.966Z,35.00
2018-07-30T13:19:35.198Z,35.30
2018-07-30T13:24:39.096Z,35.50
2018-07-30T13:29:42.921Z,35.50
2018-07-30T13:34:46.498Z,35.80
2018-07-30T13:39:50.121Z,35.60
2018-07-30T13:49:57.456Z,33.70
2018-07-30T13:55:01.390Z,34.30
2018-07-30T14:05:11.492Z,34.40
2018-07-30T14:10:15.083Z,33.90
2018-07-30T14:15:18.848Z,34.20
2018-07-30T14:20:22.188Z,33.70
2018-07-30T14:25:25.402Z,33.90
2018-07-30T14:30:28.666Z,33.50
2018-07-30T14:40:35.947Z,34.40
2018-07-30T14:45:39.466Z,34.70
2018-07-30T14:50:42.900Z,34.80
2018-07-30T14:55:46.312Z,35.10
2018-07-30T15:00:50.235Z,35.00
2018-07-30T15:05:53.532Z,35.00
2018-07-30T15:10:58.565Z,34.40
2018-07-30T15:16:01.856Z,34.50
2018-07-30T15:21:05.367Z,34.60
2018-07-30T15:26:08.635Z,34.20
2018-07-30T15:31:11.903Z,34.80
2018-07-30T15:36:15.644Z,34.10
2018-07-30T15:41:18.895Z,34.20
2018-07-30T15:46:22.273Z,34.50
2018-07-30T15:51:25.573Z,34.80
2018-07-30T15:56:29.913Z,34.90
2018-07-30T16:01:33.619Z,34.90
2018-07-30T16:06:37.024Z,34.90
2018-07-30T16:11:40.262Z,34.80
2018-07-30T16:16:43.542Z,34.60
2018-07-30T16:21:46.815Z,34.70
2018-07-30T16:26:50.092Z,34.60
2018-07-30T16:31:54.529Z,34.40
2018-07-30T16:36:57.799Z,34.30
2018-07-30T16:47:04.083Z,33.90
2018-07-30T16:52:07.343Z,33.60
2018-07-30T16:57:10.703Z,33.40
2018-07-30T17:02:13.962Z,33.30
2018-07-30T17:07:18.643Z,33.10
2018-07-30T17:12:23.171Z,33.10
2018-07-30T17:17:26.452Z,33.00
2018-07-30T17:22:29.722Z,32.90
2018-07-30T17:27:33.166Z,32.80
2018-07-30T17:32:36.459Z,32.60
2018-07-30T17:37:39.708Z,32.50
2018-07-30T17:42:42.963Z,32.40
2018-07-30T17:47:46.247Z,32.20
2018-07-30T17:52:49.500Z,32.20
2018-07-30T17:57:59.266Z,32.00
2018-07-30T18:03:02.611Z,31.90
2018-07-30T18:08:06.045Z,31.60
2018-07-30T18:13:09.305Z,31.40
2018-07-30T18:18:12.591Z,31.10
2018-07-30T18:23:15.841Z,30.80
2018-07-30T18:38:25.195Z,29.00
2018-07-30T18:43:29.684Z,28.80
2018-07-30T18:48:33.315Z,28.50
2018-07-30T19:03:43.355Z,28.30
2018-07-30T19:13:49.634Z,28.40
2018-07-30T19:18:52.984Z,28.40
2018-07-30T19:23:56.223Z,28.40
2018-07-30T19:28:59.487Z,28.70
2018-07-30T19:34:02.764Z,28.90
2018-07-30T19:39:08.241Z,28.90
2018-07-30T19:44:11.745Z,28.80
2018-07-30T19:49:14.959Z,28.60
2018-07-30T19:54:18.247Z,28.50
2018-07-30T19:59:22.342Z,28.30
2018-07-30T20:04:26.240Z,28.20
2018-07-30T20:09:29.491Z,28.00
2018-07-30T20:14:32.731Z,24.20
2018-07-30T20:19:36.245Z,27.80
2018-07-30T20:24:40.182Z,27.60
2018-07-30T20:29:44.227Z,27.50
2018-07-30T20:34:47.619Z,27.40
2018-07-30T20:39:50.934Z,27.00
2018-07-30T20:44:54.282Z,26.50
2018-07-30T20:49:57.638Z,26.20
2018-07-30T20:55:02.770Z,26.00
2018-07-30T21:00:07.189Z,26.00
2018-07-30T21:05:11.011Z,25.80
2018-07-30T21:15:17.511Z,25.50
2018-07-30T21:20:21.272Z,25.30
2018-07-30T21:25:25.208Z,25.20
2018-07-30T21:30:29.192Z,25.10
2018-07-30T21:35:32.519Z,25.00
2018-07-30T21:40:36.047Z,24.80
2018-07-30T21:45:39.719Z,24.70
2018-07-30T21:50:43.524Z,24.70
2018-07-30T21:55:46.797Z,24.60
2018-07-30T22:00:58.304Z,24.60
2018-07-30T22:06:02.488Z,24.50
2018-07-30T22:11:06.380Z,24.30
2018-07-30T22:16:10.324Z,24.30
2018-07-30T22:21:13.597Z,24.20
2018-07-30T22:31:20.954Z,23.70
2018-07-30T22:41:27.351Z,23.60
2018-07-30T22:51:33.644Z,23.70
2018-07-30T22:56:36.906Z,23.80
2018-07-30T23:01:40.151Z,23.60
2018-07-30T23:06:43.435Z,23.60
2018-07-30T23:11:46.875Z,23.60
2018-07-30T23:16:50.186Z,23.50
2018-07-30T23:21:53.440Z,23.50
2018-07-30T23:26:56.933Z,23.40
2018-07-30T23:32:00.221Z,23.20
2018-07-30T23:37:03.549Z,23.30
2018-07-30T23:42:07.059Z,23.30
2018-07-30T23:47:10.327Z,23.30
2018-07-30T23:52:13.585Z,23.30
2018-07-30T23:57:17.136Z,23.20
